Terminal Aerodrome Forecast
Issued by NWS Sterling, VA

Current Version | Previous Version | Graphics & Text | Print | Product List | Glossary On
Versions: 1 2 3 4 5 6 7 8 9 10 11 12 13 14 15 16 17 18 19 20 21 22 23 24 25
000
FTUS41 KLWX 291739
TAFIAD
TAF
KIAD 291739Z 2918/3024 16006KT P6SM SCT120
     FM292300 15005KT P6SM -SHRA SCT030 BKN080
     FM300200 VRB03KT 4SM SHRA OVC020
     FM300500 VRB03KT P6SM OVC015
     FM301400 33004KT P6SM SCT020 BKN060=

USA.gov is the U.S. government's official web portal to all federal, state and local government web resources and services.